sensor_id;sensor_type;location;lat;lon;timestamp;temperature;humidity
22471;DHT22;11402;51.374;6.594;2023-04-07T00:02:06;8.60;99.90
22471;DHT22;11402;51.374;6.594;2023-04-07T00:04:32;8.60;99.90
22471;DHT22;11402;51.374;6.594;2023-04-07T00:06:58;8.50;99.90
22471;DHT22;11402;51.374;6.594;2023-04-07T00:09:23;8.80;99.90
22471;DHT22;11402;51.374;6.594;2023-04-07T00:11:49;9.10;99.90
22471;DHT22;11402;51.374;6.594;2023-04-07T00:14:16;9.10;99.90
22471;DHT22;11402;51.374;6.594;2023-04-07T00:16:42;9.20;99.90
22471;DHT22;11402;51.374;6.594;2023-04-07T00:19:07;9.20;99.90
22471;DHT22;11402;51.374;6.594;2023-04-07T00:21:33;9.00;99.90
22471;DHT22;11402;51.374;6.594;2023-04-07T00:23:58;9.10;99.90
22471;DHT22;11402;51.374;6.594;2023-04-07T00:26:24;9.10;99.90
22471;DHT22;11402;51.374;6.594;2023-04-07T00:28:56;9.20;99.90
22471;DHT22;11402;51.374;6.594;2023-04-07T00:31:21;9.30;99.90
22471;DHT22;11402;51.374;6.594;2023-04-07T00:33:47;9.30;99.90
22471;DHT22;11402;51.374;6.594;2023-04-07T00:36:13;9.30;99.90
22471;DHT22;11402;51.374;6.594;2023-04-07T00:38:39;9.20;99.90
22471;DHT22;11402;51.374;6.594;2023-04-07T00:41:05;9.30;99.90
22471;DHT22;11402;51.374;6.594;2023-04-07T00:43:31;9.30;99.90
22471;DHT22;11402;51.374;6.594;2023-04-07T00:45:56;9.40;99.90
22471;DHT22;11402;51.374;6.594;2023-04-07T00:48:22;9.40;99.90
22471;DHT22;11402;51.374;6.594;2023-04-07T00:50:48;9.50;99.90
22471;DHT22;11402;51.374;6.594;2023-04-07T00:53:14;9.50;99.90
22471;DHT22;11402;51.374;6.594;2023-04-07T00:55:40;9.30;99.90
22471;DHT22;11402;51.374;6.594;2023-04-07T00:58:07;9.40;99.90
22471;DHT22;11402;51.374;6.594;2023-04-07T01:00:44;9.50;99.90
22471;DHT22;11402;51.374;6.594;2023-04-07T01:03:24;9.40;99.90
22471;DHT22;11402;51.374;6.594;2023-04-07T01:06:00;9.50;99.90
22471;DHT22;11402;51.374;6.594;2023-04-07T01:08:29;9.40;99.90
22471;DHT22;11402;51.374;6.594;2023-04-07T01:11:19;9.40;99.90
22471;DHT22;11402;51.374;6.594;2023-04-07T01:13:50;9.60;99.90
22471;DHT22;11402;51.374;6.594;2023-04-07T01:16:23;9.40;99.90
22471;DHT22;11402;51.374;6.594;2023-04-07T01:18:53;9.40;99.90
22471;DHT22;11402;51.374;6.594;2023-04-07T01:21:20;9.40;99.90
22471;DHT22;11402;51.374;6.594;2023-04-07T01:26:34;9.30;99.90
22471;DHT22;11402;51.374;6.594;2023-04-07T01:31:41;9.40;99.90
22471;DHT22;11402;51.374;6.594;2023-04-07T01:34:10;9.30;99.90
22471;DHT22;11402;51.374;6.594;2023-04-07T01:36:36;9.30;99.90
22471;DHT22;11402;51.374;6.594;2023-04-07T01:39:03;9.20;99.90
22471;DHT22;11402;51.374;6.594;2023-04-07T01:41:29;9.20;99.90
22471;DHT22;11402;51.374;6.594;2023-04-07T01:43:55;9.10;99.90
22471;DHT22;11402;51.374;6.594;2023-04-07T01:46:22;9.10;99.90
22471;DHT22;11402;51.374;6.594;2023-04-07T01:48:48;9.10;99.90
22471;DHT22;11402;51.374;6.594;2023-04-07T01:51:14;9.10;99.90
22471;DHT22;11402;51.374;6.594;2023-04-07T01:53:47;9.20;99.90
22471;DHT22;11402;51.374;6.594;2023-04-07T01:56:13;9.10;99.90
22471;DHT22;11402;51.374;6.594;2023-04-07T01:58:39;9.10;99.90
22471;DHT22;11402;51.374;6.594;2023-04-07T02:01:05;9.20;99.90
22471;DHT22;11402;51.374;6.594;2023-04-07T02:03:35;9.10;99.90
22471;DHT22;11402;51.374;6.594;2023-04-07T02:06:06;9.10;99.90
22471;DHT22;11402;51.374;6.594;2023-04-07T02:08:35;9.10;99.90
22471;DHT22;11402;51.374;6.594;2023-04-07T02:11:01;9.20;99.90
22471;DHT22;11402;51.374;6.594;2023-04-07T02:13:29;9.30;99.90
22471;DHT22;11402;51.374;6.594;2023-04-07T02:15:55;9.40;99.90
22471;DHT22;11402;51.374;6.594;2023-04-07T02:18:22;9.30;99.90
22471;DHT22;11402;51.374;6.594;2023-04-07T02:20:51;9.40;99.90
22471;DHT22;11402;51.374;6.594;2023-04-07T02:23:17;9.20;99.90
22471;DHT22;11402;51.374;6.594;2023-04-07T02:25:43;9.10;99.90
22471;DHT22;11402;51.374;6.594;2023-04-07T02:28:08;9.10;99.90
22471;DHT22;11402;51.374;6.594;2023-04-07T02:30:34;9.10;99.90
22471;DHT22;11402;51.374;6.594;2023-04-07T02:33:00;9.10;99.90
22471;DHT22;11402;51.374;6.594;2023-04-07T02:35:26;8.90;99.90
22471;DHT22;11402;51.374;6.594;2023-04-07T02:37:52;9.00;99.90
22471;DHT22;11402;51.374;6.594;2023-04-07T02:40:18;9.00;99.90
22471;DHT22;11402;51.374;6.594;2023-04-07T02:42:43;8.90;99.90
22471;DHT22;11402;51.374;6.594;2023-04-07T02:45:09;8.80;99.90
22471;DHT22;11402;51.374;6.594;2023-04-07T02:47:36;8.90;99.90
22471;DHT22;11402;51.374;6.594;2023-04-07T02:50:02;8.80;99.90
22471;DHT22;11402;51.374;6.594;2023-04-07T02:52:28;8.80;99.90
22471;DHT22;11402;51.374;6.594;2023-04-07T02:54:54;8.70;99.90
22471;DHT22;11402;51.374;6.594;2023-04-07T02:57:19;8.80;99.90
22471;DHT22;11402;51.374;6.594;2023-04-07T02:59:45;8.90;99.90
22471;DHT22;11402;51.374;6.594;2023-04-07T03:02:11;8.80;99.90
22471;DHT22;11402;51.374;6.594;2023-04-07T03:04:36;8.80;99.90
22471;DHT22;11402;51.374;6.594;2023-04-07T03:07:02;8.80;99.90
22471;DHT22;11402;51.374;6.594;2023-04-07T03:09:27;8.80;99.90
22471;DHT22;11402;51.374;6.594;2023-04-07T03:11:53;9.00;99.90
22471;DHT22;11402;51.374;6.594;2023-04-07T03:14:18;9.00;99.90
22471;DHT22;11402;51.374;6.594;2023-04-07T03:16:45;9.00;99.90
22471;DHT22;11402;51.374;6.594;2023-04-07T03:19:10;9.10;99.90
22471;DHT22;11402;51.374;6.594;2023-04-07T03:21:37;9.10;99.90
22471;DHT22;11402;51.374;6.594;2023-04-07T03:24:03;9.00;99.90
22471;DHT22;11402;51.374;6.594;2023-04-07T03:26:29;8.90;99.90
22471;DHT22;11402;51.374;6.594;2023-04-07T03:28:55;8.80;99.90
22471;DHT22;11402;51.374;6.594;2023-04-07T03:31:21;8.80;99.90
22471;DHT22;11402;51.374;6.594;2023-04-07T03:33:48;8.80;99.90
22471;DHT22;11402;51.374;6.594;2023-04-07T03:36:14;8.80;99.90
22471;DHT22;11402;51.374;6.594;2023-04-07T03:38:39;8.90;99.90
22471;DHT22;11402;51.374;6.594;2023-04-07T03:41:05;8.80;99.90
22471;DHT22;11402;51.374;6.594;2023-04-07T03:43:30;8.90;99.90
22471;DHT22;11402;51.374;6.594;2023-04-07T03:45:56;9.00;99.90
22471;DHT22;11402;51.374;6.594;2023-04-07T03:48:22;9.10;99.90
22471;DHT22;11402;51.374;6.594;2023-04-07T03:50:47;9.00;99.90
22471;DHT22;11402;51.374;6.594;2023-04-07T03:53:13;8.90;99.90
22471;DHT22;11402;51.374;6.594;2023-04-07T03:55:41;9.00;99.90
22471;DHT22;11402;51.374;6.594;2023-04-07T03:58:07;9.00;99.90
22471;DHT22;11402;51.374;6.594;2023-04-07T04:00:32;9.10;99.90
22471;DHT22;11402;51.374;6.594;2023-04-07T04:02:59;9.00;99.90
22471;DHT22;11402;51.374;6.594;2023-04-07T04:05:24;8.90;99.90
22471;DHT22;11402;51.374;6.594;2023-04-07T04:07:50;8.80;99.90
22471;DHT22;11402;51.374;6.594;2023-04-07T04:10:17;8.70;99.90
22471;DHT22;11402;51.374;6.594;2023-04-07T04:12:43;8.60;99.90
22471;DHT22;11402;51.374;6.594;2023-04-07T04:15:09;8.70;99.90
22471;DHT22;11402;51.374;6.594;2023-04-07T04:17:35;8.70;99.90
22471;DHT22;11402;51.374;6.594;2023-04-07T04:20:01;8.70;99.90
22471;DHT22;11402;51.374;6.594;2023-04-07T04:22:26;8.60;99.90
22471;DHT22;11402;51.374;6.594;2023-04-07T04:24:52;8.60;99.90
22471;DHT22;11402;51.374;6.594;2023-04-07T04:27:17;8.60;99.90
22471;DHT22;11402;51.374;6.594;2023-04-07T04:29:43;8.50;99.90
22471;DHT22;11402;51.374;6.594;2023-04-07T04:32:08;8.60;99.90
22471;DHT22;11402;51.374;6.594;2023-04-07T04:34:34;8.70;99.90
22471;DHT22;11402;51.374;6.594;2023-04-07T04:37:00;8.70;99.90
22471;DHT22;11402;51.374;6.594;2023-04-07T04:39:26;8.50;99.90
22471;DHT22;11402;51.374;6.594;2023-04-07T04:41:51;8.60;99.90
22471;DHT22;11402;51.374;6.594;2023-04-07T04:44:17;8.50;99.90
22471;DHT22;11402;51.374;6.594;2023-04-07T04:46:42;8.50;99.90
22471;DHT22;11402;51.374;6.594;2023-04-07T04:49:08;8.50;99.90
22471;DHT22;11402;51.374;6.594;2023-04-07T04:51:33;8.60;99.90
22471;DHT22;11402;51.374;6.594;2023-04-07T04:53:59;8.60;99.90
22471;DHT22;11402;51.374;6.594;2023-04-07T04:56:25;8.60;99.90
22471;DHT22;11402;51.374;6.594;2023-04-07T04:58:50;8.50;99.90
22471;DHT22;11402;51.374;6.594;2023-04-07T05:01:16;8.60;99.90
22471;DHT22;11402;51.374;6.594;2023-04-07T05:03:42;8.60;99.90
22471;DHT22;11402;51.374;6.594;2023-04-07T05:06:07;8.70;99.90
22471;DHT22;11402;51.374;6.594;2023-04-07T05:08:33;8.70;99.90
22471;DHT22;11402;51.374;6.594;2023-04-07T05:10:58;8.70;99.90
22471;DHT22;11402;51.374;6.594;2023-04-07T05:13:24;9.00;99.90
22471;DHT22;11402;51.374;6.594;2023-04-07T05:15:50;9.00;99.90
22471;DHT22;11402;51.374;6.594;2023-04-07T05:18:16;8.90;99.90
22471;DHT22;11402;51.374;6.594;2023-04-07T05:20:43;8.80;99.90
22471;DHT22;11402;51.374;6.594;2023-04-07T05:23:08;8.80;99.90
22471;DHT22;11402;51.374;6.594;2023-04-07T05:25:34;8.70;99.90
22471;DHT22;11402;51.374;6.594;2023-04-07T05:28:00;8.60;99.90
22471;DHT22;11402;51.374;6.594;2023-04-07T05:30:25;8.70;99.90
22471;DHT22;11402;51.374;6.594;2023-04-07T05:32:52;8.70;99.90
22471;DHT22;11402;51.374;6.594;2023-04-07T05:35:17;8.60;99.90
22471;DHT22;11402;51.374;6.594;2023-04-07T05:37:43;8.60;99.90
22471;DHT22;11402;51.374;6.594;2023-04-07T05:40:09;8.50;99.90
22471;DHT22;11402;51.374;6.594;2023-04-07T05:42:35;8.60;99.90
22471;DHT22;11402;51.374;6.594;2023-04-07T05:45:00;8.50;99.90
22471;DHT22;11402;51.374;6.594;2023-04-07T05:47:26;8.50;99.90
22471;DHT22;11402;51.374;6.594;2023-04-07T05:49:52;8.50;99.90
22471;DHT22;11402;51.374;6.594;2023-04-07T05:52:17;8.60;99.90
22471;DHT22;11402;51.374;6.594;2023-04-07T05:54:43;8.60;99.90
22471;DHT22;11402;51.374;6.594;2023-04-07T05:57:08;8.50;99.90
22471;DHT22;11402;51.374;6.594;2023-04-07T05:59:34;8.60;99.90
22471;DHT22;11402;51.374;6.594;2023-04-07T06:02:02;8.50;99.90
22471;DHT22;11402;51.374;6.594;2023-04-07T06:04:27;8.50;99.90
22471;DHT22;11402;51.374;6.594;2023-04-07T06:06:53;8.60;99.90
22471;DHT22;11402;51.374;6.594;2023-04-07T06:09:23;8.50;99.90
22471;DHT22;11402;51.374;6.594;2023-04-07T06:11:48;8.60;99.90
22471;DHT22;11402;51.374;6.594;2023-04-07T06:14:16;8.60;99.90
22471;DHT22;11402;51.374;6.594;2023-04-07T06:16:41;8.50;99.90
22471;DHT22;11402;51.374;6.594;2023-04-07T06:19:07;8.60;99.90
22471;DHT22;11402;51.374;6.594;2023-04-07T06:21:32;8.50;99.90
22471;DHT22;11402;51.374;6.594;2023-04-07T06:23:58;8.50;99.90
22471;DHT22;11402;51.374;6.594;2023-04-07T06:26:24;8.50;99.90
22471;DHT22;11402;51.374;6.594;2023-04-07T06:28:50;8.60;99.90
22471;DHT22;11402;51.374;6.594;2023-04-07T06:31:16;8.90;99.90
22471;DHT22;11402;51.374;6.594;2023-04-07T06:33:43;8.70;99.90
22471;DHT22;11402;51.374;6.594;2023-04-07T06:36:08;8.70;99.90
22471;DHT22;11402;51.374;6.594;2023-04-07T06:38:34;8.70;99.90
22471;DHT22;11402;51.374;6.594;2023-04-07T06:40:59;8.80;99.90
22471;DHT22;11402;51.374;6.594;2023-04-07T06:43:25;8.90;99.90
22471;DHT22;11402;51.374;6.594;2023-04-07T06:45:50;9.00;99.90
22471;DHT22;11402;51.374;6.594;2023-04-07T06:48:16;9.00;99.90
22471;DHT22;11402;51.374;6.594;2023-04-07T06:50:45;8.90;99.90
22471;DHT22;11402;51.374;6.594;2023-04-07T06:53:11;8.80;99.90
22471;DHT22;11402;51.374;6.594;2023-04-07T06:55:36;8.70;99.90
22471;DHT22;11402;51.374;6.594;2023-04-07T06:58:02;8.70;99.90
22471;DHT22;11402;51.374;6.594;2023-04-07T07:00:28;8.80;99.90
22471;DHT22;11402;51.374;6.594;2023-04-07T07:02:55;8.80;99.90
22471;DHT22;11402;51.374;6.594;2023-04-07T07:05:21;8.90;99.90
22471;DHT22;11402;51.374;6.594;2023-04-07T07:07:48;8.80;99.90
22471;DHT22;11402;51.374;6.594;2023-04-07T07:10:14;9.00;99.90
22471;DHT22;11402;51.374;6.594;2023-04-07T07:12:39;9.00;99.90
22471;DHT22;11402;51.374;6.594;2023-04-07T07:15:05;9.00;99.90
22471;DHT22;11402;51.374;6.594;2023-04-07T07:17:31;9.00;99.90
22471;DHT22;11402;51.374;6.594;2023-04-07T07:19:57;9.00;99.90
22471;DHT22;11402;51.374;6.594;2023-04-07T07:22:22;9.00;99.90
22471;DHT22;11402;51.374;6.594;2023-04-07T07:24:48;9.10;99.90
22471;DHT22;11402;51.374;6.594;2023-04-07T07:27:13;9.20;99.90
22471;DHT22;11402;51.374;6.594;2023-04-07T07:29:40;9.30;99.90
22471;DHT22;11402;51.374;6.594;2023-04-07T07:32:05;9.10;99.90
22471;DHT22;11402;51.374;6.594;2023-04-07T07:34:31;9.10;99.90
22471;DHT22;11402;51.374;6.594;2023-04-07T07:36:57;9.10;99.90
22471;DHT22;11402;51.374;6.594;2023-04-07T07:39:24;9.00;99.90
22471;DHT22;11402;51.374;6.594;2023-04-07T07:41:50;9.10;99.90
22471;DHT22;11402;51.374;6.594;2023-04-07T07:44:16;9.20;99.90
22471;DHT22;11402;51.374;6.594;2023-04-07T07:46:44;9.30;99.90
22471;DHT22;11402;51.374;6.594;2023-04-07T07:49:10;9.30;99.90
22471;DHT22;11402;51.374;6.594;2023-04-07T07:51:36;9.20;99.90
22471;DHT22;11402;51.374;6.594;2023-04-07T07:54:02;9.50;99.90
22471;DHT22;11402;51.374;6.594;2023-04-07T07:56:27;9.40;99.90
22471;DHT22;11402;51.374;6.594;2023-04-07T07:58:53;9.40;99.90
22471;DHT22;11402;51.374;6.594;2023-04-07T08:01:18;9.30;99.90
22471;DHT22;11402;51.374;6.594;2023-04-07T08:03:45;9.40;99.90
22471;DHT22;11402;51.374;6.594;2023-04-07T08:06:11;9.30;99.90
22471;DHT22;11402;51.374;6.594;2023-04-07T08:08:37;9.30;99.90
22471;DHT22;11402;51.374;6.594;2023-04-07T08:11:03;9.50;99.90
22471;DHT22;11402;51.374;6.594;2023-04-07T08:13:28;9.50;99.90
22471;DHT22;11402;51.374;6.594;2023-04-07T08:15:54;9.60;99.90
22471;DHT22;11402;51.374;6.594;2023-04-07T08:18:19;9.50;99.90
22471;DHT22;11402;51.374;6.594;2023-04-07T08:20:45;9.50;99.90
22471;DHT22;11402;51.374;6.594;2023-04-07T08:23:11;9.40;99.90
22471;DHT22;11402;51.374;6.594;2023-04-07T08:25:37;9.30;99.90
22471;DHT22;11402;51.374;6.594;2023-04-07T08:28:04;9.50;99.90
22471;DHT22;11402;51.374;6.594;2023-04-07T08:30:30;9.60;99.90
22471;DHT22;11402;51.374;6.594;2023-04-07T08:32:56;9.70;99.90
22471;DHT22;11402;51.374;6.594;2023-04-07T08:35:22;9.70;99.90
22471;DHT22;11402;51.374;6.594;2023-04-07T08:37:47;9.50;99.90
22471;DHT22;11402;51.374;6.594;2023-04-07T08:40:14;9.70;99.90
22471;DHT22;11402;51.374;6.594;2023-04-07T08:42:41;9.70;99.90
22471;DHT22;11402;51.374;6.594;2023-04-07T08:45:08;9.70;99.90
22471;DHT22;11402;51.374;6.594;2023-04-07T08:47:35;9.90;99.90
22471;DHT22;11402;51.374;6.594;2023-04-07T08:50:03;10.10;99.90
22471;DHT22;11402;51.374;6.594;2023-04-07T08:52:34;10.00;99.90
22471;DHT22;11402;51.374;6.594;2023-04-07T08:55:04;10.10;99.90
22471;DHT22;11402;51.374;6.594;2023-04-07T08:57:32;10.20;99.90
22471;DHT22;11402;51.374;6.594;2023-04-07T08:59:59;10.00;99.90
22471;DHT22;11402;51.374;6.594;2023-04-07T09:02:41;10.00;99.90
22471;DHT22;11402;51.374;6.594;2023-04-07T09:05:12;10.10;99.90
22471;DHT22;11402;51.374;6.594;2023-04-07T09:07:41;10.10;99.90
22471;DHT22;11402;51.374;6.594;2023-04-07T09:10:10;10.00;99.90
22471;DHT22;11402;51.374;6.594;2023-04-07T09:12:36;10.10;99.90
22471;DHT22;11402;51.374;6.594;2023-04-07T09:15:05;10.10;99.90
22471;DHT22;11402;51.374;6.594;2023-04-07T09:17:31;10.20;99.90
22471;DHT22;11402;51.374;6.594;2023-04-07T09:20:00;10.30;99.90
22471;DHT22;11402;51.374;6.594;2023-04-07T09:22:39;10.30;99.90
22471;DHT22;11402;51.374;6.594;2023-04-07T09:25:20;10.30;99.90
22471;DHT22;11402;51.374;6.594;2023-04-07T09:28:01;10.80;99.90
22471;DHT22;11402;51.374;6.594;2023-04-07T09:30:31;10.60;99.90
22471;DHT22;11402;51.374;6.594;2023-04-07T09:32:58;10.50;99.90
22471;DHT22;11402;51.374;6.594;2023-04-07T09:35:24;10.40;99.90
22471;DHT22;11402;51.374;6.594;2023-04-07T09:38:08;10.30;99.90
22471;DHT22;11402;51.374;6.594;2023-04-07T09:40:34;10.20;99.90
22471;DHT22;11402;51.374;6.594;2023-04-07T09:43:02;10.30;99.90
22471;DHT22;11402;51.374;6.594;2023-04-07T09:45:29;10.30;99.90
22471;DHT22;11402;51.374;6.594;2023-04-07T09:48:07;10.20;99.90
22471;DHT22;11402;51.374;6.594;2023-04-07T09:50:34;10.30;99.90
22471;DHT22;11402;51.374;6.594;2023-04-07T09:53:00;10.20;99.90
22471;DHT22;11402;51.374;6.594;2023-04-07T09:55:27;10.20;99.90
22471;DHT22;11402;51.374;6.594;2023-04-07T09:57:54;10.30;99.90
22471;DHT22;11402;51.374;6.594;2023-04-07T10:00:20;10.30;99.90
22471;DHT22;11402;51.374;6.594;2023-04-07T10:02:47;10.20;99.90
22471;DHT22;11402;51.374;6.594;2023-04-07T10:05:13;10.00;99.90
22471;DHT22;11402;51.374;6.594;2023-04-07T10:07:39;10.10;99.90
22471;DHT22;11402;51.374;6.594;2023-04-07T10:10:06;10.20;99.90
22471;DHT22;11402;51.374;6.594;2023-04-07T10:12:34;10.10;99.90
22471;DHT22;11402;51.374;6.594;2023-04-07T10:15:01;10.20;99.90
22471;DHT22;11402;51.374;6.594;2023-04-07T10:17:27;9.80;99.90
22471;DHT22;11402;51.374;6.594;2023-04-07T10:19:54;9.80;99.90
22471;DHT22;11402;51.374;6.594;2023-04-07T10:22:21;9.60;99.90
22471;DHT22;11402;51.374;6.594;2023-04-07T10:25:01;10.00;99.90
22471;DHT22;11402;51.374;6.594;2023-04-07T10:27:32;10.30;99.90
22471;DHT22;11402;51.374;6.594;2023-04-07T10:29:59;10.50;99.90
22471;DHT22;11402;51.374;6.594;2023-04-07T10:32:25;10.30;99.90
22471;DHT22;11402;51.374;6.594;2023-04-07T10:37:20;10.20;99.90
22471;DHT22;11402;51.374;6.594;2023-04-07T10:39:52;9.90;99.90
22471;DHT22;11402;51.374;6.594;2023-04-07T10:45:01;10.10;99.90
22471;DHT22;11402;51.374;6.594;2023-04-07T10:47:28;10.20;99.90
22471;DHT22;11402;51.374;6.594;2023-04-07T10:50:23;10.10;99.90
22471;DHT22;11402;51.374;6.594;2023-04-07T10:53:05;9.80;99.90
22471;DHT22;11402;51.374;6.594;2023-04-07T10:56:06;9.50;99.90
22471;DHT22;11402;51.374;6.594;2023-04-07T10:58:27;9.60;99.90
22471;DHT22;11402;51.374;6.594;2023-04-07T11:03:35;9.40;99.90
22471;DHT22;11402;51.374;6.594;2023-04-07T11:06:04;9.00;99.90
22471;DHT22;11402;51.374;6.594;2023-04-07T11:11:00;9.50;99.90
22471;DHT22;11402;51.374;6.594;2023-04-07T11:13:26;9.40;99.90
22471;DHT22;11402;51.374;6.594;2023-04-07T11:15:52;9.50;99.90
22471;DHT22;11402;51.374;6.594;2023-04-07T11:18:20;9.60;99.90
22471;DHT22;11402;51.374;6.594;2023-04-07T11:20:47;9.60;99.90
22471;DHT22;11402;51.374;6.594;2023-04-07T11:23:14;9.50;99.90
22471;DHT22;11402;51.374;6.594;2023-04-07T11:25:44;9.80;99.90
22471;DHT22;11402;51.374;6.594;2023-04-07T11:28:11;9.90;99.90
22471;DHT22;11402;51.374;6.594;2023-04-07T11:30:38;10.10;99.90
22471;DHT22;11402;51.374;6.594;2023-04-07T11:33:08;10.80;99.90
22471;DHT22;11402;51.374;6.594;2023-04-07T11:35:46;10.30;99.90
22471;DHT22;11402;51.374;6.594;2023-04-07T11:38:12;10.20;99.90
22471;DHT22;11402;51.374;6.594;2023-04-07T11:40:37;10.10;99.90
22471;DHT22;11402;51.374;6.594;2023-04-07T11:43:21;10.00;99.90
22471;DHT22;11402;51.374;6.594;2023-04-07T11:48:33;10.00;99.90
22471;DHT22;11402;51.374;6.594;2023-04-07T11:51:00;9.80;99.90
22471;DHT22;11402;51.374;6.594;2023-04-07T11:53:27;9.90;99.90
22471;DHT22;11402;51.374;6.594;2023-04-07T11:56:04;10.00;99.90
22471;DHT22;11402;51.374;6.594;2023-04-07T11:58:31;10.10;99.90
22471;DHT22;11402;51.374;6.594;2023-04-07T12:00:58;10.00;99.90
22471;DHT22;11402;51.374;6.594;2023-04-07T12:03:27;10.10;99.90
22471;DHT22;11402;51.374;6.594;2023-04-07T12:05:53;10.10;99.90
22471;DHT22;11402;51.374;6.594;2023-04-07T12:08:19;10.10;99.90
22471;DHT22;11402;51.374;6.594;2023-04-07T12:10:45;10.30;99.90
22471;DHT22;11402;51.374;6.594;2023-04-07T12:13:12;10.60;99.90
22471;DHT22;11402;51.374;6.594;2023-04-07T12:15:38;10.40;99.90
22471;DHT22;11402;51.374;6.594;2023-04-07T12:18:04;10.60;99.90
22471;DHT22;11402;51.374;6.594;2023-04-07T12:20:30;10.80;99.90
22471;DHT22;11402;51.374;6.594;2023-04-07T12:22:56;10.80;99.90
22471;DHT22;11402;51.374;6.594;2023-04-07T12:25:22;10.60;99.90
22471;DHT22;11402;51.374;6.594;2023-04-07T12:27:47;10.30;99.90
22471;DHT22;11402;51.374;6.594;2023-04-07T12:30:13;10.70;99.90
22471;DHT22;11402;51.374;6.594;2023-04-07T12:32:39;10.60;99.90
22471;DHT22;11402;51.374;6.594;2023-04-07T12:35:05;10.80;99.90
22471;DHT22;11402;51.374;6.594;2023-04-07T12:37:31;10.80;99.90
22471;DHT22;11402;51.374;6.594;2023-04-07T12:39:57;10.60;99.90
22471;DHT22;11402;51.374;6.594;2023-04-07T12:42:23;10.60;99.90
22471;DHT22;11402;51.374;6.594;2023-04-07T12:44:48;10.80;99.90
22471;DHT22;11402;51.374;6.594;2023-04-07T12:47:14;10.60;99.90
22471;DHT22;11402;51.374;6.594;2023-04-07T12:49:40;10.60;99.90
22471;DHT22;11402;51.374;6.594;2023-04-07T12:52:05;11.00;99.90
22471;DHT22;11402;51.374;6.594;2023-04-07T12:54:31;10.90;99.90
22471;DHT22;11402;51.374;6.594;2023-04-07T12:56:57;10.90;99.90
22471;DHT22;11402;51.374;6.594;2023-04-07T12:59:24;10.90;99.90
22471;DHT22;11402;51.374;6.594;2023-04-07T13:01:50;10.70;99.90
22471;DHT22;11402;51.374;6.594;2023-04-07T13:04:15;10.60;99.90
22471;DHT22;11402;51.374;6.594;2023-04-07T13:06:42;10.80;99.90
22471;DHT22;11402;51.374;6.594;2023-04-07T13:09:08;10.80;99.90
22471;DHT22;11402;51.374;6.594;2023-04-07T13:11:33;10.80;99.90
22471;DHT22;11402;51.374;6.594;2023-04-07T13:14:00;10.80;99.90
22471;DHT22;11402;51.374;6.594;2023-04-07T13:16:26;10.50;99.90
22471;DHT22;11402;51.374;6.594;2023-04-07T13:18:52;10.70;99.90
22471;DHT22;11402;51.374;6.594;2023-04-07T13:21:17;10.60;99.90
22471;DHT22;11402;51.374;6.594;2023-04-07T13:23:43;10.70;99.90
22471;DHT22;11402;51.374;6.594;2023-04-07T13:26:08;10.90;99.90
22471;DHT22;11402;51.374;6.594;2023-04-07T13:28:34;10.80;99.90
22471;DHT22;11402;51.374;6.594;2023-04-07T13:31:00;10.80;99.90
22471;DHT22;11402;51.374;6.594;2023-04-07T13:33:25;10.90;99.90
22471;DHT22;11402;51.374;6.594;2023-04-07T13:35:51;10.90;99.90
22471;DHT22;11402;51.374;6.594;2023-04-07T13:38:16;10.80;99.90
22471;DHT22;11402;51.374;6.594;2023-04-07T13:40:42;10.80;99.90
22471;DHT22;11402;51.374;6.594;2023-04-07T13:43:09;10.90;99.90
22471;DHT22;11402;51.374;6.594;2023-04-07T13:45:36;11.00;99.90
22471;DHT22;11402;51.374;6.594;2023-04-07T13:48:02;10.70;99.90
22471;DHT22;11402;51.374;6.594;2023-04-07T13:50:28;10.60;99.90
22471;DHT22;11402;51.374;6.594;2023-04-07T13:52:53;10.50;99.90
22471;DHT22;11402;51.374;6.594;2023-04-07T13:55:19;10.30;99.90
22471;DHT22;11402;51.374;6.594;2023-04-07T13:57:45;10.20;99.90
22471;DHT22;11402;51.374;6.594;2023-04-07T14:00:11;10.00;99.90
22471;DHT22;11402;51.374;6.594;2023-04-07T14:02:37;9.90;99.90
22471;DHT22;11402;51.374;6.594;2023-04-07T14:05:03;9.70;99.90
22471;DHT22;11402;51.374;6.594;2023-04-07T14:07:28;9.90;99.90
22471;DHT22;11402;51.374;6.594;2023-04-07T14:09:54;10.00;99.90
22471;DHT22;11402;51.374;6.594;2023-04-07T14:12:19;10.10;99.90
22471;DHT22;11402;51.374;6.594;2023-04-07T14:14:48;10.00;99.90
22471;DHT22;11402;51.374;6.594;2023-04-07T14:17:16;10.00;99.90
22471;DHT22;11402;51.374;6.594;2023-04-07T14:19:42;10.00;99.90
22471;DHT22;11402;51.374;6.594;2023-04-07T14:22:08;9.90;99.90
22471;DHT22;11402;51.374;6.594;2023-04-07T14:24:33;10.00;99.90
22471;DHT22;11402;51.374;6.594;2023-04-07T14:26:59;9.90;99.90
22471;DHT22;11402;51.374;6.594;2023-04-07T14:29:26;10.00;99.90
22471;DHT22;11402;51.374;6.594;2023-04-07T14:31:51;10.30;99.90
22471;DHT22;11402;51.374;6.594;2023-04-07T14:34:17;10.40;99.90
22471;DHT22;11402;51.374;6.594;2023-04-07T14:36:55;10.60;99.90
22471;DHT22;11402;51.374;6.594;2023-04-07T14:39:22;10.60;99.90
22471;DHT22;11402;51.374;6.594;2023-04-07T14:41:48;10.40;99.90
22471;DHT22;11402;51.374;6.594;2023-04-07T14:44:14;10.20;99.90
22471;DHT22;11402;51.374;6.594;2023-04-07T14:46:40;10.10;99.90
22471;DHT22;11402;51.374;6.594;2023-04-07T14:49:07;10.10;99.90
22471;DHT22;11402;51.374;6.594;2023-04-07T14:51:32;10.10;99.90
22471;DHT22;11402;51.374;6.594;2023-04-07T14:53:58;10.40;99.90
22471;DHT22;11402;51.374;6.594;2023-04-07T14:56:24;10.20;99.90
22471;DHT22;11402;51.374;6.594;2023-04-07T14:58:50;10.50;99.90
22471;DHT22;11402;51.374;6.594;2023-04-07T15:01:16;10.60;99.90
22471;DHT22;11402;51.374;6.594;2023-04-07T15:03:42;10.60;99.90
22471;DHT22;11402;51.374;6.594;2023-04-07T15:06:09;10.40;99.90
22471;DHT22;11402;51.374;6.594;2023-04-07T15:08:35;10.40;99.90
22471;DHT22;11402;51.374;6.594;2023-04-07T15:11:03;10.40;99.90
22471;DHT22;11402;51.374;6.594;2023-04-07T15:13:30;10.70;99.90
22471;DHT22;11402;51.374;6.594;2023-04-07T15:15:55;10.70;99.90
22471;DHT22;11402;51.374;6.594;2023-04-07T15:18:21;10.70;99.90
22471;DHT22;11402;51.374;6.594;2023-04-07T15:20:46;10.70;99.90
22471;DHT22;11402;51.374;6.594;2023-04-07T15:23:12;10.80;99.90
22471;DHT22;11402;51.374;6.594;2023-04-07T15:25:39;10.50;99.90
22471;DHT22;11402;51.374;6.594;2023-04-07T15:28:05;10.60;99.90
22471;DHT22;11402;51.374;6.594;2023-04-07T15:30:30;10.70;99.90
22471;DHT22;11402;51.374;6.594;2023-04-07T15:33:02;10.60;99.90
22471;DHT22;11402;51.374;6.594;2023-04-07T15:35:29;10.70;99.90
22471;DHT22;11402;51.374;6.594;2023-04-07T15:37:54;10.70;99.90
22471;DHT22;11402;51.374;6.594;2023-04-07T15:40:20;10.50;99.90
22471;DHT22;11402;51.374;6.594;2023-04-07T15:42:45;10.40;99.90
22471;DHT22;11402;51.374;6.594;2023-04-07T15:45:11;10.30;99.90
22471;DHT22;11402;51.374;6.594;2023-04-07T15:47:37;10.30;99.90
22471;DHT22;11402;51.374;6.594;2023-04-07T15:50:02;10.20;99.90
22471;DHT22;11402;51.374;6.594;2023-04-07T15:52:28;10.10;99.90
22471;DHT22;11402;51.374;6.594;2023-04-07T15:54:54;10.30;99.90
22471;DHT22;11402;51.374;6.594;2023-04-07T15:57:20;10.30;99.90